Time;durP1;ratioP1;P1;durP2;ratioP2;P2;SDS_P1;SDS_P2;PMS_P1;PMS_P2;Temp;Humidity;BMP_temperature;BMP_pressure;BME280_temperature;BME280_humidity;BME280_pressure;Samples;Min_cycle;Max_cycle;Signal;HPM_P1;HPM_P2
2022/03/29 12:17:04;;;;;;;30.80;23.20;;;15.70;57.70;;;;;;5085441;28;20445;-63
2022/03/29 12:19:32;;;;;;;33.03;25.73;;;15.60;58.90;;;;;;5084236;28;20024;-63
2022/03/29 12:22:02;;;;;;;29.38;25.13;;;15.90;58.30;;;;;;5077853;28;20029;-64
2022/03/29 12:24:32;;;;;;;31.08;26.63;;;16.20;58.40;;;;;;5076055;28;20037;-63
2022/03/29 12:27:06;;;;;;;31.38;25.02;;;16.50;56.60;;;;;;5081848;28;20387;-64
2022/03/29 12:29:51;;;;;;;28.38;24.38;;;16.70;55.80;;;;;;5093030;28;20180;-63
2022/03/29 12:32:18;;;;;;;26.40;22.35;;;16.90;54.90;;;;;;5080965;28;20032;-59
2022/03/29 12:34:45;;;;;;;30.45;23.10;;;17.00;54.90;;;;;;5086737;28;20403;-59
2022/03/29 12:37:15;;;;;;;27.23;24.00;;;17.20;54.50;;;;;;5082590;28;20151;-60
2022/03/29 12:39:43;;;;;;;28.27;22.35;;;17.40;53.60;;;;;;5079814;28;20437;-60
2022/03/29 12:42:19;;;;;;;27.60;22.95;;;17.50;53.10;;;;;;5082069;28;20027;-60
2022/03/29 12:44:52;;;;;;;23.70;21.20;;;17.60;51.80;;;;;;5090472;28;20515;-61
2022/03/29 12:47:19;;;;;;;23.73;20.77;;;17.70;51.80;;;;;;5094956;28;20472;-60
2022/03/29 12:49:49;;;;;;;28.02;21.10;;;17.80;51.80;;;;;;5089291;28;20107;-64
2022/03/29 12:52:16;;;;;;;21.48;19.10;;;18.00;50.70;;;;;;5084439;28;20104;-60
2022/03/29 12:54:47;;;;;;;24.17;20.92;;;18.20;49.90;;;;;;5088851;28;20043;-63
2022/03/29 12:57:15;;;;;;;21.92;19.48;;;18.20;47.70;;;;;;5082538;28;20107;-64
2022/03/29 12:59:45;;;;;;;21.30;18.25;;;18.30;46.50;;;;;;5083687;28;20029;-64
2022/03/29 13:02:21;;;;;;;20.25;18.10;;;18.30;46.40;;;;;;5089193;28;20097;-64
2022/03/29 13:04:53;;;;;;;22.55;18.48;;;18.40;46.30;;;;;;5080943;28;20364;-60
2022/03/29 13:07:44;;;;;;;19.25;17.13;;;18.60;45.50;;;;;;5081510;28;20024;-60
2022/03/29 14:58:18;;;;;;;22.13;15.95;;;20.10;38.90;;;;;;5030221;28;20467;-64
2022/03/29 15:00:46;;;;;;;18.15;16.15;;;20.50;38.70;;;;;;5022121;28;20389;-64
2022/03/29 15:03:12;;;;;;;16.10;12.82;;;21.10;37.70;;;;;;5024254;28;20029;-64
2022/03/29 15:05:38;;;;;;;16.60;14.90;;;21.80;36.20;;;;;;5021900;28;20125;-63
2022/03/29 15:08:04;;;;;;;18.35;16.45;;;22.50;34.70;;;;;;5018637;28;20113;-62
2022/03/29 15:10:29;;;;;;;18.23;15.10;;;23.10;34.00;;;;;;5023591;28;20038;-63
2022/03/29 15:12:55;;;;;;;16.33;14.07;;;23.90;33.60;;;;;;5048695;28;20121;-63
2022/03/29 15:15:28;;;;;;;18.27;14.70;;;24.80;32.40;;;;;;5025420;28;20037;-66
2022/03/29 15:17:55;;;;;;;17.98;15.50;;;25.60;30.90;;;;;;5008714;28;20022;-67
2022/03/29 15:20:21;;;;;;;17.35;15.57;;;26.20;30.10;;;;;;5019141;28;20040;-66
2022/03/29 15:22:48;;;;;;;16.48;14.77;;;26.70;29.80;;;;;;5021730;28;20029;-65
2022/03/29 15:25:15;;;;;;;16.15;13.93;;;26.90;29.60;;;;;;5021955;28;20038;-65
2022/03/29 15:27:42;;;;;;;16.92;15.10;;;27.10;29.20;;;;;;5023420;28;20754;-65
2022/03/29 15:30:09;;;;;;;18.00;16.05;;;27.30;28.80;;;;;;5016368;28;20394;-65
2022/03/29 15:32:35;;;;;;;20.25;15.60;;;27.50;28.40;;;;;;5023990;28;20029;-65
2022/03/29 15:35:03;;;;;;;16.52;14.82;;;27.50;28.10;;;;;;5049801;28;20560;-66
2022/03/29 15:37:28;;;;;;;18.90;15.95;;;27.50;28.30;;;;;;5018455;28;20032;-61
2022/03/29 15:39:54;;;;;;;16.42;14.23;;;27.60;28.20;;;;;;5020589;28;20021;-61
2022/03/29 15:42:21;;;;;;;16.48;14.85;;;27.60;28.20;;;;;;5052048;28;20109;-61
2022/03/29 15:44:49;;;;;;;17.88;14.93;;;27.60;28.10;;;;;;5023597;28;20040;-65
2022/03/29 15:47:16;;;;;;;17.83;16.05;;;27.40;27.80;;;;;;5027877;28;20063;-65
2022/03/29 15:49:43;;;;;;;18.38;15.45;;;27.20;28.10;;;;;;5056759;28;20022;-61
2022/03/29 15:52:10;;;;;;;16.38;14.75;;;26.70;28.60;;;;;;5031167;28;20037;-65
2022/03/29 15:54:37;;;;;;;15.40;13.80;;;26.10;28.90;;;;;;5016930;28;20041;-65
2022/03/29 15:57:03;;;;;;;19.30;16.50;;;25.60;29.40;;;;;;5010656;28;20137;-65
2022/03/29 15:59:29;;;;;;;21.15;16.75;;;25.10;29.80;;;;;;5025411;28;20032;-65
2022/03/29 16:01:55;;;;;;;19.00;17.00;;;24.70;30.10;;;;;;5023781;28;20026;-65
2022/03/29 16:04:21;;;;;;;20.05;17.67;;;24.40;30.50;;;;;;5026701;28;20034;-60
2022/03/29 16:06:47;;;;;;;22.75;18.40;;;24.20;31.30;;;;;;5027292;28;20036;-60
2022/03/29 16:09:18;;;;;;;20.08;17.77;;;23.90;31.50;;;;;;5007540;28;20039;-60
2022/03/29 16:11:51;;;;;;;24.75;19.60;;;23.70;32.60;;;;;;5010677;28;20034;-60
2022/03/29 16:14:19;;;;;;;19.85;17.48;;;23.40;32.00;;;;;;5001217;28;20471;-60
2022/03/29 16:16:46;;;;;;;19.75;17.65;;;23.20;32.60;;;;;;4997912;28;20026;-60
2022/03/29 16:19:11;;;;;;;23.05;17.55;;;22.90;33.10;;;;;;5009325;28;20057;-59
2022/03/29 16:21:39;;;;;;;22.15;17.52;;;22.50;33.50;;;;;;5016517;28;20045;-60
2022/03/29 16:24:05;;;;;;;23.77;18.70;;;22.10;34.00;;;;;;5012295;28;20025;-60
2022/03/29 16:26:32;;;;;;;19.92;17.73;;;21.70;34.80;;;;;;5000088;28;20405;-61
2022/03/29 16:28:58;;;;;;;22.65;17.42;;;21.40;35.30;;;;;;5002014;28;20050;-61
2022/03/29 16:31:24;;;;;;;22.65;16.83;;;21.20;35.70;;;;;;5017093;28;20551;-61
2022/03/29 16:33:52;;;;;;;22.50;18.00;;;21.10;35.80;;;;;;5010497;28;20026;-60
2022/03/29 16:36:22;;;;;;;24.98;20.25;;;21.00;36.00;;;;;;5009937;28;20124;-60
2022/03/29 16:38:49;;;;;;;22.58;17.55;;;20.90;36.10;;;;;;5011277;28;20018;-60
2022/03/29 16:41:15;;;;;;;19.30;17.30;;;20.90;36.60;;;;;;5011406;28;20448;-60
2022/03/29 16:43:41;;;;;;;24.42;19.27;;;20.80;36.70;;;;;;5011454;28;20030;-60
2022/03/29 16:46:07;;;;;;;20.33;17.42;;;20.90;36.90;;;;;;5008069;28;20080;-60
2022/03/29 16:48:34;;;;;;;22.20;16.55;;;20.90;36.90;;;;;;5009489;28;20033;-60
2022/03/29 16:51:01;;;;;;;18.50;15.50;;;20.70;36.30;;;;;;5014079;28;20026;-60
2022/03/29 16:53:28;;;;;;;22.38;17.02;;;20.50;36.50;;;;;;5017744;28;20500;-60
2022/03/29 16:55:54;;;;;;;23.40;16.35;;;20.30;36.70;;;;;;5011521;28;20050;-61
2022/03/29 16:58:19;;;;;;;20.35;16.02;;;20.10;36.70;;;;;;5014638;28;20507;-61
2022/03/29 17:00:45;;;;;;;19.20;15.85;;;20.00;37.00;;;;;;5010312;28;20104;-64
2022/03/29 17:03:11;;;;;;;20.27;14.70;;;19.80;36.80;;;;;;5006086;28;20030;-64
2022/03/29 17:05:37;;;;;;;22.10;15.65;;;19.70;36.80;;;;;;5032389;28;20034;-64
2022/03/29 17:08:03;;;;;;;21.52;15.48;;;19.60;36.90;;;;;;5001430;28;20101;-65
2022/03/29 17:10:30;;;;;;;23.50;15.80;;;19.40;37.40;;;;;;4999623;28;20038;-66
2022/03/29 17:12:56;;;;;;;20.83;15.52;;;19.30;37.40;;;;;;5037589;28;20034;-63
2022/03/29 17:15:22;;;;;;;21.05;15.88;;;19.20;37.60;;;;;;5005733;28;20018;-63
2022/03/29 17:17:49;;;;;;;20.73;17.23;;;19.10;38.10;;;;;;5040130;28;20064;-63
2022/03/29 17:20:15;;;;;;;21.85;16.02;;;19.00;38.40;;;;;;5003452;28;20030;-64
2022/03/29 17:22:40;;;;;;;22.02;16.73;;;18.90;38.80;;;;;;4997459;28;20436;-64
2022/03/29 17:25:07;;;;;;;21.52;16.73;;;18.80;39.70;;;;;;4999490;28;20030;-61
2022/03/29 17:27:33;;;;;;;26.55;18.40;;;18.70;39.40;;;;;;5009785;28;20045;-61
2022/03/29 17:29:59;;;;;;;23.05;17.75;;;18.60;39.60;;;;;;5024028;28;20034;-60
2022/03/29 17:32:25;;;;;;;20.35;17.00;;;18.50;40.30;;;;;;5008750;28;20034;-61
2022/03/29 17:34:50;;;;;;;27.58;17.45;;;18.40;40.80;;;;;;5009315;28;20033;-61
2022/03/29 17:37:16;;;;;;;24.48;17.42;;;18.30;41.00;;;;;;5010092;28;20041;-61
2022/03/29 17:39:43;;;;;;;23.27;18.52;;;18.30;41.40;;;;;;5009458;28;20045;-60
2022/03/29 17:42:09;;;;;;;26.25;18.98;;;18.20;41.90;;;;;;5040204;28;20424;-61
2022/03/29 17:44:38;;;;;;;21.52;17.33;;;18.10;42.20;;;;;;5009553;28;20109;-61
2022/03/29 17:47:06;;;;;;;22.73;17.35;;;18.00;42.30;;;;;;5009797;28;20513;-61
2022/03/29 17:49:32;;;;;;;23.95;17.58;;;18.00;42.60;;;;;;5008054;28;20072;-65
2022/03/29 17:51:58;;;;;;;25.38;17.85;;;17.90;42.70;;;;;;5009541;28;20087;-65
2022/03/29 17:54:25;;;;;;;24.75;18.08;;;17.80;42.90;;;;;;5009191;28;20026;-64
2022/03/29 17:56:50;;;;;;;21.80;16.90;;;17.70;43.10;;;;;;5024798;28;20287;-64
2022/03/29 17:59:16;;;;;;;22.48;17.45;;;17.60;43.40;;;;;;5029862;28;20460;-59
2022/03/29 18:01:43;;;;;;;22.95;17.52;;;17.50;43.60;;;;;;5008638;28;20133;-60
2022/03/29 18:04:10;;;;;;;27.25;17.33;;;17.40;43.80;;;;;;5009991;28;20026;-60
2022/03/29 18:06:36;;;;;;;23.00;17.27;;;17.40;43.90;;;;;;5008684;28;20088;-59
2022/03/29 18:09:03;;;;;;;21.48;17.02;;;17.30;44.20;;;;;;5014425;28;20490;-60
2022/03/29 18:11:31;;;;;;;23.23;16.58;;;17.20;44.20;;;;;;5012162;28;20033;-64
2022/03/29 18:13:58;;;;;;;23.85;17.90;;;17.10;44.00;;;;;;5008596;28;20057;-64
2022/03/29 18:16:24;;;;;;;21.27;16.67;;;17.00;44.40;;;;;;4999560;28;20030;-64
2022/03/29 18:18:51;;;;;;;21.65;16.48;;;17.00;44.40;;;;;;5008453;28;20026;-60
2022/03/29 18:21:16;;;;;;;24.65;16.02;;;16.90;44.30;;;;;;5007831;28;20026;-59
2022/03/29 18:23:44;;;;;;;25.40;16.63;;;16.80;44.60;;;;;;5013661;28;20026;-59
2022/03/29 18:26:11;;;;;;;21.77;16.23;;;16.80;44.90;;;;;;5011638;28;20026;-59
2022/03/29 18:28:37;;;;;;;25.77;16.10;;;16.70;45.00;;;;;;5003949;28;21244;-64
2022/03/29 18:31:04;;;;;;;24.85;16.77;;;16.60;45.10;;;;;;4997762;28;20045;-64
2022/03/29 18:33:30;;;;;;;22.38;15.55;;;16.60;45.30;;;;;;4999783;28;20026;-64
2022/03/29 18:35:56;;;;;;;22.00;16.40;;;16.50;45.50;;;;;;5009922;28;20037;-65
2022/03/29 18:38:21;;;;;;;23.67;15.75;;;16.40;45.70;;;;;;5005310;28;20104;-60
2022/03/29 18:40:47;;;;;;;22.35;15.95;;;16.40;45.80;;;;;;5004862;28;20037;-60
2022/03/29 18:43:13;;;;;;;21.15;15.48;;;16.30;45.90;;;;;;5008904;28;20041;-60
2022/03/29 18:45:43;;;;;;;24.83;17.10;;;16.30;46.10;;;;;;5018890;28;20033;-60
2022/03/29 18:48:09;;;;;;;22.23;16.02;;;16.20;46.10;;;;;;5025518;28;20412;-60
2022/03/29 18:50:35;;;;;;;24.55;15.80;;;16.10;46.20;;;;;;5007040;28;20038;-60
2022/03/29 18:53:01;;;;;;;20.13;15.40;;;16.10;46.30;;;;;;5008180;28;20034;-60
2022/03/29 18:55:27;;;;;;;22.52;16.33;;;16.00;46.50;;;;;;5008471;28;20041;-60
2022/03/29 18:57:53;;;;;;;22.80;14.98;;;16.00;46.60;;;;;;5008988;28;20050;-60
2022/03/29 19:00:22;;;;;;;20.60;15.07;;;15.90;46.60;;;;;;5008229;28;20117;-60
2022/03/29 19:02:49;;;;;;;21.83;15.57;;;15.90;46.90;;;;;;5009331;28;20041;-60
2022/03/29 19:05:15;;;;;;;23.83;14.23;;;15.80;47.10;;;;;;5008225;28;20030;-61
2022/03/29 19:07:42;;;;;;;22.20;14.55;;;15.80;47.30;;;;;;5008933;28;20034;-64
2022/03/29 19:10:12;;;;;;;23.75;14.63;;;15.70;47.60;;;;;;5007958;28;20041;-65
2022/03/29 19:12:39;;;;;;;21.85;13.45;;;15.70;47.70;;;;;;5006012;28;20030;-64
2022/03/29 19:15:05;;;;;;;22.55;14.25;;;15.60;47.90;;;;;;5014603;28;20042;-64
2022/03/29 19:17:31;;;;;;;25.85;14.40;;;15.50;48.00;;;;;;5009411;28;20036;-64
2022/03/29 19:19:58;;;;;;;21.55;13.55;;;15.50;48.30;;;;;;5007899;28;20026;-64
2022/03/29 19:22:23;;;;;;;19.42;13.77;;;15.50;48.40;;;;;;5007584;28;20030;-64
2022/03/29 19:24:49;;;;;;;22.25;13.73;;;15.40;48.50;;;;;;5009841;28;20022;-64
2022/03/29 19:27:16;;;;;;;22.20;14.45;;;15.40;48.80;;;;;;5012012;28;20037;-63
2022/03/29 19:29:42;;;;;;;25.50;13.40;;;15.30;49.00;;;;;;5007810;28;20033;-63
2022/03/29 19:32:09;;;;;;;20.75;14.02;;;15.30;49.10;;;;;;5002349;28;20029;-63
2022/03/29 19:34:35;;;;;;;19.27;13.35;;;15.20;49.20;;;;;;5005006;28;20030;-63
2022/03/29 19:37:01;;;;;;;22.98;13.57;;;15.20;49.30;;;;;;5002336;28;20359;-59
2022/03/29 19:39:49;;;;;;;23.75;13.18;;;15.10;49.40;;;;;;5004671;28;20065;-59
2022/03/29 19:42:15;;;;;;;20.00;13.25;;;15.10;49.40;;;;;;5002669;28;20038;-59
2022/03/29 19:44:50;;;;;;;20.27;13.82;;;15.00;49.70;;;;;;5000983;28;20037;-63
2022/03/29 19:47:23;;;;;;;23.02;14.10;;;14.90;49.80;;;;;;5010942;28;20526;-63
2022/03/29 19:49:50;;;;;;;19.33;13.13;;;14.90;49.80;;;;;;5004091;28;20080;-64
2022/03/29 19:52:17;;;;;;;21.65;13.35;;;14.80;50.00;;;;;;5005197;28;20061;-60
2022/03/29 19:54:44;;;;;;;19.85;12.85;;;14.80;50.10;;;;;;5004728;28;20026;-59
2022/03/29 19:57:11;;;;;;;19.92;13.25;;;14.70;50.10;;;;;;5037269;28;20521;-64
2022/03/29 19:59:37;;;;;;;21.35;12.00;;;14.70;50.40;;;;;;5005804;28;20036;-63
2022/03/29 20:02:04;;;;;;;20.95;12.27;;;14.60;50.40;;;;;;5007557;28;20420;-60
2022/03/29 20:04:30;;;;;;;22.65;13.00;;;14.60;50.50;;;;;;5009941;28;20362;-59
2022/03/29 20:06:57;;;;;;;23.02;12.98;;;14.50;50.60;;;;;;5010539;28;20116;-60
2022/03/29 20:09:23;;;;;;;20.63;12.80;;;14.50;50.80;;;;;;5013570;28;20036;-64
2022/03/29 20:11:51;;;;;;;21.17;13.77;;;14.40;50.90;;;;;;5011585;28;20026;-63
2022/03/29 20:14:16;;;;;;;24.23;13.27;;;14.30;51.10;;;;;;5024618;28;20068;-59
2022/03/29 20:16:42;;;;;;;25.58;13.80;;;14.20;51.20;;;;;;5017424;28;20058;-63
2022/03/29 20:19:08;;;;;;;21.95;12.88;;;14.20;51.40;;;;;;5010525;28;20117;-64
2022/03/29 20:21:34;;;;;;;22.88;12.80;;;14.10;51.50;;;;;;5010080;28;20029;-59
2022/03/29 20:23:59;;;;;;;24.90;13.85;;;14.10;51.70;;;;;;5002772;28;20392;-64
2022/03/29 20:26:25;;;;;;;23.38;12.95;;;14.00;52.30;;;;;;4990367;28;20501;-64
2022/03/29 20:28:51;;;;;;;23.55;12.90;;;14.00;51.70;;;;;;4994429;28;20044;-60
2022/03/29 20:31:17;;;;;;;20.25;12.02;;;14.00;51.80;;;;;;5011395;28;20113;-59
2022/03/29 20:33:46;;;;;;;18.38;11.70;;;13.90;51.90;;;;;;5008067;28;20561;-60
2022/03/29 20:36:12;;;;;;;20.27;12.20;;;13.90;51.90;;;;;;5007522;28;20034;-59
2022/03/29 20:38:38;;;;;;;23.13;12.57;;;13.90;52.10;;;;;;5009409;28;20022;-59
2022/03/29 20:41:05;;;;;;;22.70;11.68;;;13.80;52.10;;;;;;5019261;28;20497;-59
2022/03/29 20:43:31;;;;;;;22.42;12.32;;;13.80;52.10;;;;;;5010255;28;20037;-59
2022/03/29 20:45:57;;;;;;;22.92;11.85;;;13.70;52.20;;;;;;5010963;28;20034;-63
2022/03/29 20:48:23;;;;;;;20.50;12.15;;;13.70;52.20;;;;;;5010077;28;20026;-61
2022/03/29 20:50:51;;;;;;;24.30;12.70;;;13.60;52.30;;;;;;5011401;28;20044;-61
2022/03/29 20:53:17;;;;;;;30.92;12.95;;;13.60;52.30;;;;;;5010301;28;20034;-65
2022/03/29 20:55:43;;;;;;;25.67;12.85;;;13.60;52.60;;;;;;5008882;28;20026;-64
2022/03/29 20:58:11;;;;;;;22.88;12.25;;;13.50;52.50;;;;;;5010555;28;20050;-64
2022/03/29 21:00:38;;;;;;;21.70;12.30;;;13.50;52.70;;;;;;5009449;28;20033;-65
2022/03/29 21:03:06;;;;;;;19.58;11.80;;;13.40;52.70;;;;;;5011043;28;20022;-61
2022/03/29 21:05:40;;;;;;;22.58;11.77;;;13.30;52.80;;;;;;5010535;28;20057;-61
2022/03/29 21:08:09;;;;;;;17.85;11.95;;;13.30;52.90;;;;;;5010572;28;20038;-64
2022/03/29 21:10:36;;;;;;;21.85;11.43;;;13.20;53.10;;;;;;5010509;28;20080;-61
2022/03/29 21:13:05;;;;;;;20.63;11.43;;;13.20;53.10;;;;;;5010742;28;20034;-64
2022/03/29 21:15:31;;;;;;;20.35;12.25;;;13.20;53.20;;;;;;5005741;28;20444;-60
2022/03/29 21:17:58;;;;;;;23.55;12.25;;;13.10;53.30;;;;;;5010812;28;20062;-65
2022/03/29 21:20:25;;;;;;;20.63;12.13;;;13.10;53.40;;;;;;5010275;28;20037;-60
2022/03/29 21:22:55;;;;;;;20.23;11.82;;;13.10;53.40;;;;;;5010838;28;20596;-61
2022/03/29 21:25:21;;;;;;;24.23;12.63;;;13.00;53.50;;;;;;5009789;28;20385;-60
2022/03/29 21:27:47;;;;;;;26.13;12.45;;;13.00;53.60;;;;;;5010751;28;20034;-60
2022/03/29 21:30:12;;;;;;;26.13;12.43;;;12.90;53.70;;;;;;5010416;28;20037;-65
2022/03/29 21:32:38;;;;;;;21.63;12.68;;;12.90;53.90;;;;;;5041643;28;20038;-60
2022/03/29 21:35:06;;;;;;;26.90;12.90;;;12.90;54.10;;;;;;5009983;28;20107;-61
2022/03/29 21:37:32;;;;;;;20.30;12.05;;;12.80;54.10;;;;;;5010483;28;20037;-65
2022/03/29 21:39:58;;;;;;;20.85;11.45;;;12.80;54.20;;;;;;5010181;28;20116;-65
2022/03/29 21:42:24;;;;;;;22.17;12.60;;;12.70;54.20;;;;;;5010133;28;20105;-64
2022/03/29 21:44:50;;;;;;;28.20;13.32;;;12.70;54.30;;;;;;5008403;28;20482;-61
2022/03/29 21:47:16;;;;;;;21.90;12.38;;;12.70;54.50;;;;;;5008829;28;20036;-64
2022/03/29 21:49:41;;;;;;;24.00;13.05;;;12.60;54.50;;;;;;5004732;28;20440;-64
2022/03/29 21:52:07;;;;;;;24.73;12.40;;;12.60;54.80;;;;;;4994318;28;20047;-65
2022/03/29 21:54:33;;;;;;;22.70;12.80;;;12.60;54.70;;;;;;5020197;28;20503;-65
2022/03/29 21:56:59;;;;;;;24.77;12.95;;;12.50;54.70;;;;;;5009009;28;20046;-64
2022/03/29 21:59:25;;;;;;;25.02;12.63;;;12.50;54.80;;;;;;5009916;28;20472;-64
2022/03/29 22:01:51;;;;;;;24.65;13.35;;;12.50;54.90;;;;;;5009855;28;20032;-64
2022/03/29 22:04:18;;;;;;;21.45;12.75;;;12.40;55.10;;;;;;5009313;28;20113;-64
2022/03/29 22:06:44;;;;;;;25.73;13.25;;;12.40;55.10;;;;;;5009448;28;20025;-62
2022/03/29 22:09:10;;;;;;;23.70;13.00;;;12.30;55.10;;;;;;5009418;28;20040;-63
2022/03/29 22:11:35;;;;;;;25.23;12.60;;;12.30;55.20;;;;;;5007210;28;20092;-58
2022/03/29 22:14:02;;;;;;;23.33;12.88;;;12.20;55.20;;;;;;5007941;28;20044;-64
2022/03/29 22:16:28;;;;;;;22.90;12.45;;;12.20;55.30;;;;;;4989199;28;20062;-63
2022/03/29 22:18:55;;;;;;;23.27;12.73;;;12.20;55.60;;;;;;4996562;28;20049;-64
2022/03/29 22:21:21;;;;;;;29.38;13.43;;;12.10;55.70;;;;;;5009633;28;20045;-59
2022/03/29 22:23:47;;;;;;;22.98;13.98;;;12.10;55.80;;;;;;5009341;28;20026;-59
2022/03/29 22:26:12;;;;;;;22.52;13.25;;;12.00;55.80;;;;;;5009321;28;20432;-59
2022/03/29 22:28:38;;;;;;;26.42;13.70;;;12.00;55.90;;;;;;5029215;28;20108;-59
2022/03/29 22:31:04;;;;;;;25.73;13.55;;;11.90;56.00;;;;;;5029404;28;20084;-59
2022/03/29 22:33:30;;;;;;;24.77;13.25;;;11.90;56.20;;;;;;5029064;28;20409;-63
2022/03/29 22:35:57;;;;;;;23.92;13.10;;;11.80;56.30;;;;;;5028993;28;20064;-63
2022/03/29 22:38:23;;;;;;;24.50;13.63;;;11.80;56.50;;;;;;5028418;28;20032;-64
2022/03/29 22:40:49;;;;;;;23.67;13.35;;;11.70;56.60;;;;;;5029251;28;20029;-63
2022/03/29 22:43:15;;;;;;;32.92;14.00;;;11.70;56.80;;;;;;5011328;28;20120;-64
2022/03/29 22:45:41;;;;;;;30.55;14.25;;;11.60;56.80;;;;;;5028594;28;20487;-60
2022/03/29 22:48:08;;;;;;;20.40;12.55;;;11.60;56.90;;;;;;5014548;28;20026;-60
2022/03/29 22:50:34;;;;;;;25.15;14.20;;;11.50;57.00;;;;;;5008654;28;20038;-60
2022/03/29 22:53:00;;;;;;;25.48;14.73;;;11.50;57.30;;;;;;5007816;28;20029;-60
2022/03/29 22:55:27;;;;;;;24.35;13.85;;;11.50;57.40;;;;;;5008090;28;20084;-60
2022/03/29 22:57:56;;;;;;;23.40;13.40;;;11.40;57.30;;;;;;5008996;28;20077;-60
2022/03/29 23:00:23;;;;;;;20.80;13.32;;;11.30;57.50;;;;;;5008931;28;20412;-64
2022/03/29 23:02:48;;;;;;;21.70;13.18;;;11.30;57.60;;;;;;5008961;28;20076;-64
2022/03/29 23:05:14;;;;;;;25.75;14.50;;;11.20;57.80;;;;;;5008438;28;20026;-63
2022/03/29 23:07:41;;;;;;;27.50;14.07;;;11.20;57.90;;;;;;5009258;28;20034;-63
2022/03/29 23:10:08;;;;;;;25.13;14.15;;;11.10;57.90;;;;;;5008560;28;20042;-63
2022/03/29 23:12:34;;;;;;;35.28;14.85;;;11.10;58.00;;;;;;5008962;28;20641;-63
2022/03/29 23:15:00;;;;;;;26.13;14.68;;;11.10;58.20;;;;;;5008399;28;20113;-59
2022/03/29 23:17:27;;;;;;;25.20;15.05;;;11.10;58.30;;;;;;5009121;28;20485;-59
2022/03/29 23:19:53;;;;;;;26.08;14.48;;;11.00;58.30;;;;;;5012610;28;20064;-58
2022/03/29 23:22:18;;;;;;;22.85;13.93;;;11.00;58.50;;;;;;5012799;28;20018;-63
2022/03/29 23:24:44;;;;;;;28.17;14.55;;;10.90;58.40;;;;;;5019087;28;20439;-64
2022/03/29 23:27:11;;;;;;;22.92;14.23;;;10.90;58.60;;;;;;5017925;28;20037;-63
2022/03/29 23:29:39;;;;;;;30.13;15.25;;;10.80;58.70;;;;;;5012719;28;20512;-63
2022/03/29 23:32:06;;;;;;;25.55;15.48;;;10.80;58.90;;;;;;5013040;28;20504;-63
2022/03/29 23:34:31;;;;;;;27.98;15.32;;;10.70;58.80;;;;;;5011955;28;20061;-60
2022/03/29 23:36:57;;;;;;;25.15;14.07;;;10.70;59.00;;;;;;5011507;28;20025;-63
2022/03/29 23:39:23;;;;;;;31.58;15.73;;;10.60;59.00;;;;;;5011809;28;20031;-63
2022/03/29 23:41:50;;;;;;;32.25;14.52;;;10.60;59.20;;;;;;5012776;28;20029;-63
2022/03/29 23:44:16;;;;;;;23.58;14.52;;;10.60;59.30;;;;;;5012290;28;20428;-59
2022/03/29 23:46:42;;;;;;;28.05;14.60;;;10.50;59.30;;;;;;5010955;28;20033;-63
2022/03/29 23:49:09;;;;;;;26.08;14.48;;;10.50;59.50;;;;;;5012507;28;20548;-63
2022/03/29 23:51:36;;;;;;;29.98;15.32;;;10.50;59.70;;;;;;5012344;28;20026;-63
2022/03/29 23:54:03;;;;;;;24.75;14.52;;;10.50;59.70;;;;;;5011209;28;20034;-59
2022/03/29 23:56:28;;;;;;;27.55;15.55;;;10.40;59.70;;;;;;5012002;28;20376;-59
2022/03/29 23:58:54;;;;;;;22.73;13.93;;;10.40;60.00;;;;;;5010100;28;20025;-59
